Time;durP1;ratioP1;P1;durP2;ratioP2;P2;SDS_P1;SDS_P2;PMS_P1;PMS_P2;Temp;Humidity;BMP_temperature;BMP_pressure;BME280_temperature;BME280_humidity;BME280_pressure;Samples;Min_cycle;Max_cycle;Signal;HPM_P1;HPM_P2
2021/03/12 00:04:54;;;;;;;8.27;1.03;;;;;;;;;;10318603;28;20123;-63
2021/03/12 00:09:51;;;;;;;3.10;0.57;;;;;;;;;;10317561;28;20174;-61
2021/03/12 00:14:48;;;;;;;1.87;1.33;;;;;;;;;;10321819;28;20679;-59
2021/03/12 00:19:46;;;;;;;3.20;1.07;;;;;;;;;;10321430;28;20038;-60
2021/03/12 00:24:43;;;;;;;6.77;2.70;;;;;;;;;;10320971;28;20045;-60
2021/03/12 00:29:41;;;;;;;4.50;2.17;;;;;;;;;;10310117;28;20037;-61
2021/03/12 00:34:38;;;;;;;10.25;2.80;;;;;;;;;;10318057;28;20041;-60
2021/03/12 00:39:36;;;;;;;1.83;1.43;;;;;;;;;;10326212;28;20131;-62
2021/03/12 00:44:34;;;;;;;1.37;0.90;;;;;;;;;;10299637;28;20788;-60
2021/03/12 00:49:31;;;;;;;4.65;2.20;;;;;;;;;;10328944;28;20041;-61
2021/03/12 00:54:31;;;;;;;2.75;1.45;;;;;;;;;;10326717;28;20041;-61
2021/03/12 00:59:41;;;;;;;4.40;2.33;;;;;;;;;;10330929;28;20072;-61
2021/03/12 01:04:38;;;;;;;4.33;1.97;;;;;;;;;;10321802;28;20155;-59
2021/03/12 01:09:42;;;;;;;7.70;2.28;;;;;;;;;;10324342;28;20033;-59
2021/03/12 01:14:40;;;;;;;;;;;;;;;;;;10307375;28;20042;-58
2021/03/12 01:19:37;;;;;;;10.25;2.40;;;;;;;;;;10317148;28;20314;-60
2021/03/12 01:24:37;;;;;;;16.23;3.63;;;;;;;;;;10324400;28;20052;-56
2021/03/12 01:29:38;;;;;;;6.07;1.50;;;;;;;;;;10304910;28;20111;-59
2021/03/12 01:34:41;;;;;;;12.60;3.67;;;;;;;;;;10321323;28;20033;-62
2021/03/12 01:39:39;;;;;;;14.48;2.75;;;;;;;;;;10323464;28;21509;-59
2021/03/12 01:44:37;;;;;;;7.53;2.17;;;;;;;;;;10320228;28;20507;-60
2021/03/12 01:49:34;;;;;;;12.47;1.80;;;;;;;;;;10319451;28;20029;-58
2021/03/12 01:54:34;;;;;;;6.20;2.10;;;;;;;;;;10336904;28;20041;-59
2021/03/12 01:59:36;;;;;;;11.38;1.85;;;;;;;;;;10340641;28;20033;-60
2021/03/12 02:04:49;;;;;;;15.25;2.38;;;;;;;;;;10338242;28;20522;-58
2021/03/12 02:09:48;;;;;;;9.60;1.63;;;;;;;;;;10328374;28;20091;-56
2021/03/12 02:14:50;;;;;;;9.20;1.90;;;;;;;;;;10310991;28;20091;-60
2021/03/12 02:20:06;;;;;;;8.95;2.45;;;;;;;;;;10308929;28;20045;-60
2021/03/12 02:25:04;;;;;;;8.90;2.42;;;;;;;;;;10297719;28;20388;-60
2021/03/12 02:30:15;;;;;;;12.07;2.13;;;;;;;;;;10345653;28;20083;-59
2021/03/12 02:35:17;;;;;;;13.75;2.80;;;;;;;;;;10333943;28;20532;-60
2021/03/12 02:40:18;;;;;;;13.13;2.05;;;;;;;;;;10330957;28;20695;-59
2021/03/12 02:45:23;;;;;;;7.53;1.63;;;;;;;;;;10330456;28;20033;-63
2021/03/12 02:50:32;;;;;;;8.45;1.40;;;;;;;;;;10310483;28;20033;-59
2021/03/12 02:55:35;;;;;;;8.07;2.05;;;;;;;;;;10324744;28;20032;-62
2021/03/12 03:00:34;;;;;;;8.95;2.08;;;;;;;;;;10326284;28;20116;-59
2021/03/12 03:06:03;;;;;;;9.43;2.28;;;;;;;;;;10318757;28;20853;-58
2021/03/12 03:11:03;;;;;;;11.20;1.98;;;;;;;;;;10309466;28;20044;-59
2021/03/12 03:16:02;;;;;;;7.30;2.13;;;;;;;;;;10323924;28;20033;-64
2021/03/12 03:21:00;;;;;;;6.60;1.70;;;;;;;;;;10312799;28;20044;-61
2021/03/12 03:25:58;;;;;;;5.70;2.47;;;;;;;;;;10305543;28;20098;-60
2021/03/12 03:31:03;;;;;;;11.27;1.58;;;;;;;;;;10323901;28;20037;-60
2021/03/12 03:36:02;;;;;;;13.02;2.58;;;;;;;;;;10345083;28;20649;-60
2021/03/12 03:41:04;;;;;;;6.63;1.90;;;;;;;;;;10343935;28;20124;-59
2021/03/12 03:46:04;;;;;;;11.32;2.75;;;;;;;;;;10328101;28;20760;-58
2021/03/12 03:51:10;;;;;;;;;;;;;;;;;;10334284;28;20064;-68
2021/03/12 03:56:10;;;;;;;10.33;2.30;;;;;;;;;;10321238;28;20349;-62
2021/03/12 04:01:08;;;;;;;13.00;2.10;;;;;;;;;;10319992;28;20077;-59
2021/03/12 04:06:09;;;;;;;8.68;1.92;;;;;;;;;;10318093;28;20045;-61
2021/03/12 04:11:10;;;;;;;10.98;1.75;;;;;;;;;;10308379;28;20124;-60
2021/03/12 04:16:08;;;;;;;16.38;3.33;;;;;;;;;;10341754;28;20041;-61
2021/03/12 04:21:06;;;;;;;12.27;2.20;;;;;;;;;;10325469;28;20459;-60
2021/03/12 04:26:04;;;;;;;6.47;1.85;;;;;;;;;;10325899;28;20047;-59
2021/03/12 04:31:03;;;;;;;9.93;2.15;;;;;;;;;;10328514;28;20033;-62
2021/03/12 04:36:03;;;;;;;6.40;1.95;;;;;;;;;;10337779;28;20615;-62
2021/03/12 04:41:02;;;;;;;11.10;3.17;;;;;;;;;;10342276;28;20040;-60
2021/03/12 04:46:02;;;;;;;13.60;4.70;;;;;;;;;;10328676;28;20052;-61
2021/03/12 04:51:05;;;;;;;15.77;5.32;;;;;;;;;;10325475;28;20491;-60
2021/03/12 04:56:03;;;;;;;21.95;4.95;;;;;;;;;;10331369;28;20045;-62
2021/03/12 05:01:05;;;;;;;9.23;3.08;;;;;;;;;;10325106;28;20033;-63
2021/03/12 05:06:04;;;;;;;4.30;2.13;;;;;;;;;;10329692;28;20078;-63
2021/03/12 05:11:06;;;;;;;10.05;1.90;;;;;;;;;;10312596;28;20052;-63
2021/03/12 05:16:14;;;;;;;9.90;2.13;;;;;;;;;;10325397;28;20037;-61
2021/03/12 05:21:12;;;;;;;8.03;2.33;;;;;;;;;;10316721;28;20628;-62
2021/03/12 05:26:10;;;;;;;21.20;5.57;;;;;;;;;;10332239;28;20060;-63
2021/03/12 05:31:08;;;;;;;27.10;9.27;;;;;;;;;;10332486;28;20579;-64
2021/03/12 05:36:05;;;;;;;23.43;8.40;;;;;;;;;;10319177;28;20052;-63
2021/03/12 05:41:04;;;;;;;65.03;20.27;;;;;;;;;;10323276;28;20047;-64
2021/03/12 05:46:03;;;;;;;85.93;22.65;;;;;;;;;;10329388;28;20041;-62
2021/03/12 05:51:04;;;;;;;89.38;25.05;;;;;;;;;;10308659;28;20039;-64
2021/03/12 05:56:02;;;;;;;57.83;15.63;;;;;;;;;;10301915;28;20044;-63
2021/03/12 06:01:10;;;;;;;71.70;20.67;;;;;;;;;;10321874;28;20035;-62
2021/03/12 06:06:08;;;;;;;77.23;23.40;;;;;;;;;;10321688;28;20036;-63
2021/03/12 06:11:09;;;;;;;62.33;18.85;;;;;;;;;;10315414;28;20044;-63
2021/03/12 06:16:20;;;;;;;55.90;15.32;;;;;;;;;;10317301;28;20120;-63
2021/03/12 06:21:27;;;;;;;81.15;21.83;;;;;;;;;;10313563;28;20592;-61
2021/03/12 06:26:42;;;;;;;47.33;12.05;;;;;;;;;;10313204;28;20383;-60
2021/03/12 06:31:51;;;;;;;32.72;8.43;;;;;;;;;;10306106;28;20073;-59
2021/03/12 06:37:30;;;;;;;18.50;6.25;;;;;;;;;;10313470;28;20052;-59
2021/03/12 06:42:59;;;;;;;12.45;4.10;;;;;;;;;;10268082;28;20035;-61
2021/03/12 06:48:17;;;;;;;6.35;3.03;;;;;;;;;;10323754;28;20526;-61
2021/03/12 06:53:32;;;;;;;9.20;3.13;;;;;;;;;;10305455;28;20437;-59
2021/03/12 06:58:33;;;;;;;17.13;3.45;;;;;;;;;;10324515;28;20144;-59
2021/03/12 07:03:37;;;;;;;12.50;2.85;;;;;;;;;;10308356;28;20103;-61
2021/03/12 07:09:05;;;;;;;6.68;2.13;;;;;;;;;;10306187;28;20510;-60
2021/03/12 07:14:27;;;;;;;11.05;2.40;;;;;;;;;;10300870;28;20048;-60
2021/03/12 07:19:29;;;;;;;6.57;1.70;;;;;;;;;;10320854;28;20043;-60
2021/03/12 07:24:29;;;;;;;10.73;2.15;;;;;;;;;;10279489;28;20056;-60
2021/03/12 07:29:29;;;;;;;11.63;2.00;;;;;;;;;;10318079;28;20505;-60
2021/03/12 07:34:47;;;;;;;4.25;1.60;;;;;;;;;;10317716;28;20033;-59
2021/03/12 07:39:57;;;;;;;12.65;1.85;;;;;;;;;;10319975;28;20025;-61
2021/03/12 07:44:58;;;;;;;4.90;1.42;;;;;;;;;;10342525;28;20047;-60
2021/03/12 07:50:38;;;;;;;6.20;1.77;;;;;;;;;;10321141;28;20048;-60
2021/03/12 07:55:41;;;;;;;7.28;1.50;;;;;;;;;;10323140;28;20037;-61
2021/03/12 08:00:57;;;;;;;4.47;1.20;;;;;;;;;;10322825;28;20029;-60
2021/03/12 08:06:00;;;;;;;7.93;1.50;;;;;;;;;;10325344;28;20033;-61
2021/03/12 08:11:36;;;;;;;7.35;1.05;;;;;;;;;;10319818;28;20174;-63
2021/03/12 08:16:57;;;;;;;5.55;1.83;;;;;;;;;;10274834;28;20029;-60
2021/03/12 08:21:59;;;;;;;11.75;1.67;;;;;;;;;;10322003;28;20082;-59
2021/03/12 08:27:07;;;;;;;6.43;1.67;;;;;;;;;;10314228;28;20053;-61
2021/03/12 08:32:37;;;;;;;9.45;1.80;;;;;;;;;;10296500;28;20077;-60
2021/03/12 08:37:48;;;;;;;6.35;1.77;;;;;;;;;;10318969;28;20033;-61
2021/03/12 08:42:55;;;;;;;4.25;1.35;;;;;;;;;;10298939;28;20171;-61
2021/03/12 08:48:27;;;;;;;2.08;1.10;;;;;;;;;;10264090;28;20037;-59
2021/03/12 08:53:29;;;;;;;5.55;1.10;;;;;;;;;;10303521;28;20037;-61
2021/03/12 08:58:34;;;;;;;9.10;1.63;;;;;;;;;;10313705;28;20033;-60
2021/03/12 09:03:46;;;;;;;4.10;1.23;;;;;;;;;;10312067;28;20033;-60
2021/03/12 09:09:05;;;;;;;6.28;1.20;;;;;;;;;;10306521;28;20041;-60
2021/03/12 09:14:25;;;;;;;6.93;1.55;;;;;;;;;;10302759;28;20042;-62
2021/03/12 09:19:24;;;;;;;10.70;1.87;;;;;;;;;;10330232;28;20036;-60
2021/03/12 09:24:30;;;;;;;5.55;1.15;;;;;;;;;;10295827;28;20044;-60
2021/03/12 09:29:34;;;;;;;4.82;1.48;;;;;;;;;;10317702;28;20127;-61
2021/03/12 09:34:32;;;;;;;10.48;2.15;;;;;;;;;;10312315;28;20443;-61
2021/03/12 09:39:38;;;;;;;7.78;1.85;;;;;;;;;;10341964;28;20037;-60
2021/03/12 09:44:46;;;;;;;4.63;1.20;;;;;;;;;;10315706;28;20773;-60
2021/03/12 09:49:49;;;;;;;4.95;1.63;;;;;;;;;;10316751;28;20040;-61
2021/03/12 09:54:52;;;;;;;4.32;1.67;;;;;;;;;;10314659;28;20037;-60
2021/03/12 09:59:52;;;;;;;5.22;1.60;;;;;;;;;;10314949;28;20072;-61
2021/03/12 10:05:16;;;;;;;8.35;1.63;;;;;;;;;;10308482;28;20473;-60
2021/03/12 10:10:33;;;;;;;7.72;1.42;;;;;;;;;;10314188;28;20422;-60
2021/03/12 10:15:34;;;;;;;9.43;2.17;;;;;;;;;;10328343;28;20383;-61
2021/03/12 10:20:42;;;;;;;11.88;2.72;;;;;;;;;;10303918;28;20076;-60
2021/03/12 10:25:43;;;;;;;1.03;0.73;;;;;;;;;;10335366;28;20124;-59
2021/03/12 10:30:44;;;;;;;8.98;1.77;;;;;;;;;;10324853;28;20052;-60
2021/03/12 10:35:43;;;;;;;8.35;1.33;;;;;;;;;;10311737;28;20049;-60
2021/03/12 10:40:41;;;;;;;10.55;1.65;;;;;;;;;;10303011;28;20039;-62
2021/03/12 10:45:42;;;;;;;4.47;1.52;;;;;;;;;;10306237;28;20033;-61
2021/03/12 10:50:40;;;;;;;6.50;1.50;;;;;;;;;;10305091;28;20029;-61
2021/03/12 10:55:42;;;;;;;5.35;1.10;;;;;;;;;;10305488;28;20029;-61
2021/03/12 11:00:40;;;;;;;5.18;1.50;;;;;;;;;;10299359;28;20495;-62
2021/03/12 11:05:37;;;;;;;10.30;1.93;;;;;;;;;;10297403;28;21412;-58
2021/03/12 11:10:35;;;;;;;7.63;1.83;;;;;;;;;;10317717;28;20095;-61
2021/03/12 11:15:32;;;;;;;9.87;2.23;;;;;;;;;;10307082;28;20028;-61
2021/03/12 11:20:30;;;;;;;3.03;1.23;;;;;;;;;;10317273;28;20085;-58
2021/03/12 11:25:27;;;;;;;6.73;1.27;;;;;;;;;;10331008;28;20048;-61
2021/03/12 11:30:25;;;;;;;3.97;1.53;;;;;;;;;;10306165;28;20401;-60
2021/03/12 11:35:26;;;;;;;3.90;1.85;;;;;;;;;;10307072;28;20117;-61
2021/03/12 11:40:24;;;;;;;4.78;1.05;;;;;;;;;;10314068;28;20044;-60
2021/03/12 11:45:22;;;;;;;5.10;1.35;;;;;;;;;;10311379;28;20040;-60
2021/03/12 11:50:19;;;;;;;6.93;1.57;;;;;;;;;;10314318;28;20060;-59
2021/03/12 11:55:17;;;;;;;3.57;1.30;;;;;;;;;;10328084;28;20033;-58
2021/03/12 12:00:15;;;;;;;3.20;1.20;;;;;;;;;;10324866;28;20053;-59
2021/03/12 12:05:13;;;;;;;4.80;1.15;;;;;;;;;;10327393;28;20510;-61
2021/03/12 12:10:11;;;;;;;4.50;1.13;;;;;;;;;;10337624;28;20040;-59
2021/03/12 12:15:09;;;;;;;3.03;1.27;;;;;;;;;;10323938;28;20037;-57
2021/03/12 12:20:07;;;;;;;5.07;1.07;;;;;;;;;;10329321;28;20033;-56
2021/03/12 12:25:05;;;;;;;5.87;1.13;;;;;;;;;;10313789;28;20282;-59
2021/03/12 12:30:04;;;;;;;7.43;1.38;;;;;;;;;;10319730;28;20038;-62
2021/03/12 12:35:01;;;;;;;6.57;1.20;;;;;;;;;;10303920;28;20040;-60
2021/03/12 12:39:59;;;;;;;3.97;1.20;;;;;;;;;;10317289;28;20029;-58
2021/03/12 12:44:56;;;;;;;8.93;2.10;;;;;;;;;;10330360;28;20544;-57
2021/03/12 12:49:54;;;;;;;7.10;1.43;;;;;;;;;;10317243;28;20033;-60
2021/03/12 12:54:52;;;;;;;11.98;1.65;;;;;;;;;;10345216;28;20095;-57
2021/03/12 12:59:50;;;;;;;9.27;1.73;;;;;;;;;;10334471;28;20128;-56
2021/03/12 13:04:47;;;;;;;8.33;1.17;;;;;;;;;;10329278;28;20022;-60
2021/03/12 13:09:45;;;;;;;6.53;1.37;;;;;;;;;;10323382;28;20044;-58
2021/03/12 13:14:42;;;;;;;3.00;1.03;;;;;;;;;;10325390;28;20040;-57
2021/03/12 13:19:40;;;;;;;1.60;0.43;;;;;;;;;;10338497;28;20130;-61
2021/03/12 13:24:38;;;;;;;5.47;0.93;;;;;;;;;;10317212;28;20082;-59
2021/03/12 13:29:36;;;;;;;3.00;0.60;;;;;;;;;;10331938;28;20230;-60
2021/03/12 13:34:35;;;;;;;4.63;0.73;;;;;;;;;;10355267;28;20044;-60
2021/03/12 13:39:32;;;;;;;3.22;1.10;;;;;;;;;;10333694;28;20036;-59
2021/03/12 13:44:30;;;;;;;7.10;1.30;;;;;;;;;;10306331;28;20043;-60
2021/03/12 13:49:27;;;;;;;3.87;1.53;;;;;;;;;;10328748;28;20036;-57
2021/03/12 13:54:25;;;;;;;3.60;1.10;;;;;;;;;;10332420;28;20091;-59
2021/03/12 13:59:22;;;;;;;2.30;0.80;;;;;;;;;;10335527;28;20044;-61
2021/03/12 14:04:20;;;;;;;1.77;1.10;;;;;;;;;;10289608;28;20446;-61
2021/03/12 14:09:17;;;;;;;11.13;0.87;;;;;;;;;;10319663;28;20029;-57
2021/03/12 14:14:16;;;;;;;1.53;0.70;;;;;;;;;;10321232;28;20033;-56
2021/03/12 14:19:13;;;;;;;2.53;0.80;;;;;;;;;;10312336;28;20381;-57
2021/03/12 14:24:19;;;;;;;4.57;1.23;;;;;;;;;;10322264;28;20045;-60
2021/03/12 14:29:17;;;;;;;2.28;0.52;;;;;;;;;;10309269;28;20086;-60
2021/03/12 14:34:15;;;;;;;5.20;0.77;;;;;;;;;;10314151;28;20033;-60
2021/03/12 14:39:12;;;;;;;1.60;0.90;;;;;;;;;;10315144;28;20037;-60
2021/03/12 14:44:10;;;;;;;1.87;0.90;;;;;;;;;;10321974;28;20403;-59
2021/03/12 14:49:27;;;;;;;4.45;0.73;;;;;;;;;;10331833;28;20048;-57
2021/03/12 14:54:25;;;;;;;6.23;1.33;;;;;;;;;;10301660;28;20033;-57
2021/03/12 14:59:22;;;;;;;5.03;1.30;;;;;;;;;;10312288;28;20123;-61
2021/03/12 15:04:20;;;;;;;3.53;1.17;;;;;;;;;;10321177;28;20124;-61
2021/03/12 15:09:17;;;;;;;3.07;0.80;;;;;;;;;;10318118;28;20034;-61
2021/03/12 15:14:16;;;;;;;;;;;;;;;;;;10328469;28;20029;-57
2021/03/12 15:19:14;;;;;;;4.60;0.85;;;;;;;;;;10317920;28;19917;-57
2021/03/12 15:24:12;;;;;;;;;;;;;;;;;;10300065;28;20116;-60
2021/03/12 15:29:10;;;;;;;9.23;1.63;;;;;;;;;;10319900;28;20005;-56
2021/03/12 15:34:10;;;;;;;2.22;1.23;;;;;;;;;;10325296;28;20086;-61
2021/03/12 15:39:08;;;;;;;1.80;1.13;;;;;;;;;;10327322;28;20041;-59
2021/03/12 15:44:07;;;;;;;3.67;1.45;;;;;;;;;;10317727;28;20044;-60
2021/03/12 15:49:05;;;;;;;7.20;2.03;;;;;;;;;;10330285;28;20051;-61
2021/03/12 15:54:16;;;;;;;2.78;1.83;;;;;;;;;;10306605;28;21263;-58
2021/03/12 15:59:20;;;;;;;2.35;1.52;;;;;;;;;;10315042;28;20068;-62
2021/03/12 16:04:18;;;;;;;1.48;0.95;;;;;;;;;;10310209;28;20063;-60
2021/03/12 16:09:17;;;;;;;1.85;0.85;;;;;;;;;;10331471;28;20037;-58
2021/03/12 16:14:15;;;;;;;1.98;1.20;;;;;;;;;;10322755;28;20503;-58
2021/03/12 16:19:14;;;;;;;5.43;1.80;;;;;;;;;;10313241;28;20037;-63
2021/03/12 16:24:34;;;;;;;6.88;1.50;;;;;;;;;;10324699;28;20033;-60
2021/03/12 16:29:52;;;;;;;3.53;1.05;;;;;;;;;;10322138;28;20526;-62
2021/03/12 16:34:52;;;;;;;5.95;1.83;;;;;;;;;;10313865;28;20026;-60
2021/03/12 16:40:02;;;;;;;5.82;1.10;;;;;;;;;;10317352;28;20045;-59
2021/03/12 16:45:01;;;;;;;3.40;1.88;;;;;;;;;;10322785;28;20033;-60
2021/03/12 16:49:59;;;;;;;;;;;;;;;;;;10305277;28;20450;-56
2021/03/12 16:54:56;;;;;;;1.45;0.50;;;;;;;;;;10312415;28;19955;-57
2021/03/12 16:59:53;;;;;;;3.20;0.93;;;;;;;;;;10328815;28;20036;-59
2021/03/12 17:04:51;;;;;;;2.40;0.70;;;;;;;;;;10323391;28;20041;-57
2021/03/12 17:09:48;;;;;;;2.30;0.70;;;;;;;;;;10322348;28;20041;-57
2021/03/12 17:14:46;;;;;;;0.60;0.60;;;;;;;;;;10319174;28;20491;-58
2021/03/12 17:19:43;;;;;;;1.27;0.73;;;;;;;;;;10318152;28;20064;-57
2021/03/12 17:24:41;;;;;;;0.87;0.67;;;;;;;;;;10315408;28;20517;-59
2021/03/12 17:29:39;;;;;;;3.78;0.93;;;;;;;;;;10323723;28;20037;-57
2021/03/12 17:34:36;;;;;;;2.63;0.67;;;;;;;;;;10335493;28;20033;-60
2021/03/12 17:39:34;;;;;;;2.80;0.83;;;;;;;;;;10342134;28;20048;-58
2021/03/12 17:44:31;;;;;;;0.60;0.40;;;;;;;;;;10329908;28;20056;-56
2021/03/12 17:49:29;;;;;;;0.73;0.63;;;;;;;;;;10331435;28;20040;-60
2021/03/12 17:54:26;;;;;;;2.23;0.60;;;;;;;;;;10334384;28;20524;-60
2021/03/12 17:59:23;;;;;;;0.40;0.40;;;;;;;;;;10331662;28;20502;-62
2021/03/12 18:04:22;;;;;;;0.60;0.60;;;;;;;;;;10336069;28;20517;-59
2021/03/12 18:09:19;;;;;;;0.52;0.38;;;;;;;;;;10332606;28;20029;-60
2021/03/12 18:14:17;;;;;;;1.70;0.60;;;;;;;;;;10334668;28;20481;-59
2021/03/12 18:19:14;;;;;;;1.73;0.53;;;;;;;;;;10340510;28;20099;-58
2021/03/12 18:24:12;;;;;;;0.88;0.60;;;;;;;;;;10330747;28;20055;-57
2021/03/12 18:29:10;;;;;;;1.77;0.70;;;;;;;;;;10328404;28;20773;-60
2021/03/12 18:34:07;;;;;;;1.60;0.43;;;;;;;;;;10315272;28;20067;-57
2021/03/12 18:39:06;;;;;;;0.63;0.60;;;;;;;;;;10301909;28;20048;-56
2021/03/12 18:44:03;;;;;;;1.85;0.73;;;;;;;;;;10351027;28;20408;-57
2021/03/12 18:49:03;;;;;;;2.97;0.70;;;;;;;;;;10327050;28;20044;-59
2021/03/12 18:54:00;;;;;;;2.95;1.00;;;;;;;;;;10316133;28;20051;-60
2021/03/12 18:58:58;;;;;;;4.47;0.83;;;;;;;;;;10325326;28;20494;-57
2021/03/12 19:03:55;;;;;;;5.80;1.27;;;;;;;;;;10322924;28;20098;-60
2021/03/12 19:08:53;;;;;;;2.17;1.30;;;;;;;;;;10323857;28;20025;-57
2021/03/12 19:13:50;;;;;;;3.30;2.07;;;;;;;;;;10320315;28;20025;-58
2021/03/12 19:18:47;;;;;;;7.80;1.53;;;;;;;;;;10323742;28;20067;-57
2021/03/12 19:23:45;;;;;;;0.77;0.50;;;;;;;;;;10284615;28;20781;-58
2021/03/12 19:28:42;;;;;;;4.13;1.30;;;;;;;;;;10325803;28;20041;-58
2021/03/12 19:33:40;;;;;;;2.10;0.83;;;;;;;;;;10313503;28;20041;-58
2021/03/12 19:38:37;;;;;;;2.90;0.67;;;;;;;;;;10320532;28;20036;-57
2021/03/12 19:43:34;;;;;;;4.13;1.00;;;;;;;;;;10308828;28;20734;-56
2021/03/12 19:48:32;;;;;;;4.03;1.43;;;;;;;;;;10330927;28;20037;-59
2021/03/12 19:53:30;;;;;;;2.13;1.17;;;;;;;;;;10322231;28;20120;-56
2021/03/12 19:58:27;;;;;;;0.80;0.75;;;;;;;;;;10338880;28;20036;-56
2021/03/12 20:03:25;;;;;;;1.17;0.53;;;;;;;;;;10332838;28;20066;-58
2021/03/12 20:08:22;;;;;;;2.75;1.08;;;;;;;;;;10334591;28;20044;-59
2021/03/12 20:13:20;;;;;;;1.67;0.57;;;;;;;;;;10323952;28;20040;-61
2021/03/12 20:18:17;;;;;;;1.40;0.70;;;;;;;;;;10330946;28;20069;-59
2021/03/12 20:23:15;;;;;;;4.43;0.60;;;;;;;;;;10328680;28;20043;-59
2021/03/12 20:28:13;;;;;;;4.70;0.90;;;;;;;;;;10330698;28;20094;-59
2021/03/12 20:33:11;;;;;;;1.17;1.08;;;;;;;;;;10326802;28;20055;-61
2021/03/12 20:38:09;;;;;;;5.83;1.43;;;;;;;;;;10310383;28;20400;-61
2021/03/12 20:43:08;;;;;;;3.42;1.23;;;;;;;;;;10306507;28;20112;-58
2021/03/12 20:48:05;;;;;;;3.73;0.97;;;;;;;;;;10316588;28;20122;-60
2021/03/12 20:53:04;;;;;;;2.80;0.53;;;;;;;;;;10321587;28;20035;-59
2021/03/12 20:58:01;;;;;;;0.98;0.73;;;;;;;;;;10335666;28;20709;-60
2021/03/12 21:02:59;;;;;;;4.23;1.43;;;;;;;;;;10330194;28;20255;-60
2021/03/12 21:07:56;;;;;;;1.47;0.70;;;;;;;;;;10329868;28;20025;-61
2021/03/12 21:12:54;;;;;;;4.90;0.90;;;;;;;;;;10323339;28;20017;-59
2021/03/12 21:17:51;;;;;;;3.50;0.67;;;;;;;;;;10328022;28;20029;-57
2021/03/12 21:22:49;;;;;;;2.03;0.60;;;;;;;;;;10332381;28;20032;-62
2021/03/12 21:27:46;;;;;;;4.03;1.20;;;;;;;;;;10330588;28;20036;-57
2021/03/12 21:32:44;;;;;;;2.00;0.60;;;;;;;;;;10326993;28;20036;-61
2021/03/12 21:37:41;;;;;;;1.47;0.57;;;;;;;;;;10319031;28;20116;-59
2021/03/12 21:42:38;;;;;;;3.03;0.90;;;;;;;;;;10320677;28;20051;-61
2021/03/12 21:47:37;;;;;;;6.47;1.00;;;;;;;;;;10338612;28;20033;-61
2021/03/12 21:52:35;;;;;;;2.35;1.00;;;;;;;;;;10308877;28;20039;-60
2021/03/12 21:57:32;;;;;;;6.80;0.85;;;;;;;;;;10304793;28;20033;-61
2021/03/12 22:02:30;;;;;;;2.07;0.63;;;;;;;;;;10327328;28;20127;-59
2021/03/12 22:07:31;;;;;;;0.80;0.77;;;;;;;;;;10313603;28;20044;-62
2021/03/12 22:12:31;;;;;;;2.15;0.57;;;;;;;;;;10319257;28;20091;-62
2021/03/12 22:17:29;;;;;;;6.20;1.40;;;;;;;;;;10316346;28;20043;-58
2021/03/12 22:22:26;;;;;;;5.13;0.83;;;;;;;;;;10314476;28;20116;-61
2021/03/12 22:27:24;;;;;;;2.47;0.57;;;;;;;;;;10308395;28;20040;-62
2021/03/12 22:32:21;;;;;;;1.70;0.70;;;;;;;;;;10316676;28;20397;-61
2021/03/12 22:37:18;;;;;;;1.97;1.00;;;;;;;;;;10312085;28;20407;-62
2021/03/12 22:42:16;;;;;;;4.50;1.03;;;;;;;;;;10313531;28;20496;-61
2021/03/12 22:47:14;;;;;;;3.90;1.08;;;;;;;;;;10303624;28;20037;-61
2021/03/12 22:52:11;;;;;;;3.83;1.03;;;;;;;;;;10301538;28;20040;-63
2021/03/12 22:57:09;;;;;;;1.83;0.70;;;;;;;;;;10296734;28;20051;-60
2021/03/12 23:02:06;;;;;;;1.50;0.80;;;;;;;;;;10332070;28;20042;-61
2021/03/12 23:07:04;;;;;;;2.00;0.63;;;;;;;;;;10317275;28;20040;-59
2021/03/12 23:12:01;;;;;;;16.97;1.30;;;;;;;;;;10308773;28;20037;-59
2021/03/12 23:16:59;;;;;;;0.33;0.30;;;;;;;;;;10318832;28;20036;-60
2021/03/12 23:21:56;;;;;;;1.17;0.33;;;;;;;;;;10301361;28;20099;-59
2021/03/12 23:26:54;;;;;;;0.40;0.40;;;;;;;;;;10308970;28;20364;-60
2021/03/12 23:31:51;;;;;;;0.40;0.33;;;;;;;;;;10303604;28;20037;-57
2021/03/12 23:36:49;;;;;;;1.10;0.47;;;;;;;;;;10310113;28;20270;-58
2021/03/12 23:41:46;;;;;;;3.33;0.97;;;;;;;;;;10313025;28;20037;-63
2021/03/12 23:46:45;;;;;;;2.80;0.67;;;;;;;;;;10309866;28;20033;-58
2021/03/12 23:51:43;;;;;;;2.83;0.63;;;;;;;;;;10310318;28;20646;-58
2021/03/12 23:56:40;;;;;;;0.37;0.33;;;;;;;;;;10304738;28;20044;-60
